createdAt,value
2019-01-14T00:04:06.401Z,82.90
2019-01-14T00:06:55.187Z,82.32
2019-01-14T00:09:44.007Z,83.15
2019-01-14T00:12:32.830Z,82.78
2019-01-14T00:18:16.570Z,81.62
2019-01-14T00:21:05.428Z,81.25
2019-01-14T00:23:54.318Z,81.79
2019-01-14T00:26:43.134Z,81.95
2019-01-14T00:29:31.976Z,81.82
2019-01-14T00:32:20.852Z,81.79
2019-01-14T00:35:09.807Z,82.55
2019-01-14T00:37:58.617Z,82.80
2019-01-14T00:40:47.428Z,83.45
2019-01-14T00:43:36.220Z,83.07
2019-01-14T00:46:25.030Z,83.78
2019-01-14T00:49:13.828Z,84.19
2019-01-14T00:52:02.638Z,83.93
2019-01-14T00:54:44.308Z,84.02
2019-01-14T00:57:33.118Z,84.45
2019-01-14T01:00:42.824Z,83.39
2019-01-14T01:03:31.635Z,84.09
2019-01-14T01:06:24.638Z,84.06
2019-01-14T01:09:10.955Z,83.23
2019-01-14T01:11:59.747Z,83.36
2019-01-14T01:14:48.549Z,83.26
2019-01-14T01:17:37.334Z,83.76
2019-01-14T01:23:22.174Z,85.23
2019-01-14T01:26:10.975Z,84.26
2019-01-14T01:28:59.797Z,84.56
2019-01-14T01:31:48.597Z,85.06
2019-01-14T01:34:37.408Z,85.24
2019-01-14T01:37:26.192Z,85.29
2019-01-14T01:40:35.915Z,85.24
2019-01-14T01:43:24.702Z,86.05
2019-01-14T01:46:13.502Z,85.22
2019-01-14T01:49:02.291Z,85.26
2019-01-14T01:51:51.089Z,85.23
2019-01-14T01:54:32.894Z,85.97
2019-01-14T01:57:21.709Z,85.11
2019-01-14T02:00:31.425Z,86.32
2019-01-14T02:03:20.221Z,86.10
2019-01-14T02:06:09.091Z,85.68
2019-01-14T02:08:57.880Z,86.32
2019-01-14T02:11:46.690Z,85.42
2019-01-14T02:17:44.939Z,85.05
2019-01-14T02:20:33.746Z,84.89
2019-01-14T02:23:22.546Z,85.16
2019-01-14T02:26:11.657Z,85.31
2019-01-14T02:29:00.465Z,85.22
2019-01-14T02:31:49.253Z,84.90
2019-01-14T02:34:38.341Z,85.85
2019-01-14T02:37:27.149Z,85.83
2019-01-14T02:40:36.930Z,85.90
2019-01-14T02:43:25.739Z,85.14
2019-01-14T02:46:14.546Z,84.97
2019-01-14T02:49:03.371Z,85.35
2019-01-14T02:51:52.162Z,85.22
2019-01-14T02:54:33.511Z,84.98
2019-01-14T02:57:22.322Z,84.56
2019-01-14T03:00:30.443Z,84.74
2019-01-14T03:03:19.248Z,84.96
2019-01-14T03:06:08.041Z,84.69
2019-01-14T03:08:56.859Z,84.62
2019-01-14T03:11:45.680Z,85.27
2019-01-14T03:14:34.459Z,85.20
2019-01-14T03:17:23.261Z,84.98
2019-01-14T03:20:32.955Z,84.62
2019-01-14T03:23:21.767Z,83.18
2019-01-14T03:26:10.556Z,82.71
2019-01-14T03:28:59.708Z,81.97
2019-01-14T03:31:48.501Z,81.43
2019-01-14T03:34:37.307Z,80.24
2019-01-14T03:37:26.100Z,80.23
2019-01-14T03:40:35.827Z,80.35
2019-01-14T03:43:43.748Z,80.41
2019-01-14T03:46:32.615Z,80.07
2019-01-14T03:49:21.427Z,79.94
2019-01-14T03:52:10.220Z,80.13
2019-01-14T03:54:59.038Z,80.99
2019-01-14T03:57:41.079Z,80.12
2019-01-14T04:00:29.912Z,79.98
2019-01-14T04:03:18.686Z,79.94
2019-01-14T04:06:07.498Z,79.97
2019-01-14T04:08:56.296Z,79.94
2019-01-14T04:11:45.102Z,79.32
2019-01-14T04:14:33.900Z,78.89
2019-01-14T04:17:22.706Z,79.12
2019-01-14T04:20:32.400Z,78.62
2019-01-14T04:23:21.212Z,79.26
2019-01-14T04:26:10.067Z,78.63
2019-01-14T04:28:58.866Z,78.58
2019-01-14T04:31:47.652Z,78.75
2019-01-14T04:34:36.458Z,77.28
2019-01-14T04:37:25.398Z,78.40
2019-01-14T04:40:35.116Z,77.60
2019-01-14T04:43:23.904Z,77.67
2019-01-14T04:46:12.723Z,76.94
2019-01-14T04:49:01.507Z,76.91
2019-01-14T04:51:50.321Z,77.01
2019-01-14T04:54:31.666Z,77.23
2019-01-14T04:57:20.428Z,77.05
2019-01-14T05:00:28.537Z,77.14
2019-01-14T05:03:17.347Z,76.88
2019-01-14T05:06:06.148Z,77.32
2019-01-14T05:08:55.014Z,77.39
2019-01-14T05:11:43.813Z,76.80
2019-01-14T05:14:32.618Z,78.52
2019-01-14T05:17:21.406Z,78.29
2019-01-14T05:20:31.138Z,77.78
2019-01-14T05:23:19.939Z,77.60
2019-01-14T05:26:08.739Z,78.48
2019-01-14T05:32:13.088Z,78.52
2019-01-14T05:35:01.904Z,77.88
2019-01-14T05:37:50.702Z,77.22
2019-01-14T05:40:39.495Z,77.42
2019-01-14T05:43:28.315Z,77.57
2019-01-14T05:49:24.863Z,78.57
2019-01-14T05:52:13.653Z,78.27
2019-01-14T05:55:02.472Z,78.17
2019-01-14T05:57:51.340Z,78.06
2019-01-14T06:03:39.307Z,78.43
2019-01-14T06:06:29.047Z,78.20
2019-01-14T06:09:17.859Z,79.35
2019-01-14T06:12:06.650Z,79.09
2019-01-14T06:14:55.452Z,79.58
2019-01-14T06:17:44.310Z,79.56
2019-01-14T06:23:32.201Z,79.02
2019-01-14T06:26:21.255Z,79.63
2019-01-14T06:29:10.098Z,79.21
2019-01-14T06:31:58.883Z,79.41
2019-01-14T06:34:47.700Z,78.85
2019-01-14T06:37:36.487Z,80.05
2019-01-14T06:40:25.399Z,79.64
2019-01-14T06:43:14.142Z,80.53
2019-01-14T06:46:02.947Z,80.48
2019-01-14T06:48:51.741Z,81.58
2019-01-14T06:51:40.552Z,83.04
2019-01-14T06:57:30.177Z,82.54
2019-01-14T07:03:47.630Z,83.91
2019-01-14T07:06:36.426Z,83.28
2019-01-14T07:09:25.260Z,82.92
2019-01-14T07:12:14.115Z,82.80
2019-01-14T07:15:02.925Z,82.42
2019-01-14T07:17:51.729Z,81.89
2019-01-14T07:20:40.539Z,82.13
2019-01-14T07:23:29.344Z,81.91
2019-01-14T07:26:18.172Z,81.07
2019-01-14T07:29:06.975Z,80.70
2019-01-14T07:31:55.782Z,80.48
2019-01-14T07:34:44.588Z,81.00
2019-01-14T07:37:33.407Z,81.24
2019-01-14T07:40:22.229Z,81.35
2019-01-14T07:43:11.020Z,80.05
2019-01-14T07:45:59.833Z,79.73
2019-01-14T07:48:48.645Z,80.20
2019-01-14T07:54:38.401Z,79.51
2019-01-14T07:57:27.194Z,78.77
2019-01-14T08:00:35.314Z,78.05
2019-01-14T08:03:24.100Z,78.47
2019-01-14T08:06:12.909Z,78.53
2019-01-14T08:09:01.707Z,77.22
2019-01-14T08:11:50.515Z,77.00
2019-01-14T08:14:39.301Z,77.06
2019-01-14T08:17:28.124Z,75.57
2019-01-14T08:20:16.973Z,75.51
2019-01-14T08:23:05.782Z,75.54
2019-01-14T08:25:54.920Z,76.32
2019-01-14T08:28:43.724Z,75.61
2019-01-14T08:31:32.528Z,75.67
2019-01-14T08:34:21.352Z,74.83
2019-01-14T08:37:10.145Z,74.24
2019-01-14T08:39:58.962Z,74.69
2019-01-14T08:42:47.748Z,73.26
2019-01-14T08:45:36.563Z,73.91
2019-01-14T08:48:25.383Z,74.27
2019-01-14T08:51:14.239Z,73.51
2019-01-14T08:54:03.103Z,72.09
2019-01-14T08:56:51.889Z,73.39
2019-01-14T08:59:40.697Z,71.63
2019-01-14T09:02:29.485Z,72.78
2019-01-14T09:05:18.735Z,72.07
2019-01-14T09:08:07.544Z,72.76
2019-01-14T09:10:56.330Z,72.84
2019-01-14T09:13:45.135Z,72.61
2019-01-14T09:16:33.940Z,72.10
2019-01-14T09:19:22.746Z,72.68
2019-01-14T09:22:11.236Z,73.27
2019-01-14T09:25:00.091Z,72.42
2019-01-14T09:27:50.588Z,74.09
2019-01-14T09:30:39.404Z,73.05
2019-01-14T09:33:28.205Z,74.23
2019-01-14T09:36:17.004Z,74.80
2019-01-14T09:39:26.705Z,73.57
2019-01-14T09:42:15.519Z,74.29
2019-01-14T09:48:33.248Z,73.73
2019-01-14T09:54:24.126Z,72.40
2019-01-14T09:57:12.925Z,71.66
2019-01-14T10:00:01.735Z,72.58
2019-01-14T10:02:55.430Z,71.46
2019-01-14T10:05:41.132Z,71.27
2019-01-14T10:08:29.925Z,71.27
2019-01-14T10:11:18.718Z,68.89
2019-01-14T10:14:07.524Z,68.99
2019-01-14T10:23:21.511Z,68.01
2019-01-14T10:29:05.844Z,69.03
2019-01-14T10:31:54.632Z,69.37
2019-01-14T10:34:43.437Z,69.42
2019-01-14T10:37:32.229Z,68.83
2019-01-14T10:40:21.037Z,69.49
2019-01-14T10:43:09.828Z,70.29
2019-01-14T10:45:58.701Z,70.36
2019-01-14T10:48:47.483Z,69.89
2019-01-14T10:51:36.302Z,70.15
2019-01-14T10:54:16.055Z,67.25
2019-01-14T10:57:04.864Z,67.61
2019-01-14T10:59:53.758Z,66.98
2019-01-14T11:05:51.939Z,67.86
2019-01-14T11:08:40.722Z,67.03
2019-01-14T11:11:30.452Z,68.41
2019-01-14T11:14:19.261Z,68.74
2019-01-14T11:17:08.060Z,68.49
2019-01-14T11:19:56.858Z,69.24
2019-01-14T11:22:45.642Z,69.95
2019-01-14T11:25:34.544Z,68.30
2019-01-14T11:28:23.331Z,69.90
2019-01-14T11:31:12.142Z,69.77
2019-01-14T11:34:00.959Z,68.34
2019-01-14T11:36:49.792Z,68.05
2019-01-14T11:39:38.579Z,68.09
2019-01-14T11:42:27.392Z,67.27
2019-01-14T11:45:10.948Z,66.87
2019-01-14T11:47:59.756Z,65.11
2019-01-14T11:50:48.567Z,64.35
2019-01-14T11:53:30.781Z,63.40
2019-01-14T11:56:19.598Z,62.97
2019-01-14T11:59:08.373Z,63.53
2019-01-14T12:01:57.333Z,62.34
2019-01-14T12:04:46.144Z,63.56
2019-01-14T12:07:34.933Z,62.71
2019-01-14T12:10:23.739Z,61.80
2019-01-14T12:13:12.661Z,61.48
2019-01-14T12:16:01.474Z,62.77
2019-01-14T12:18:50.279Z,61.77
2019-01-14T12:21:39.069Z,61.38
2019-01-14T12:24:27.882Z,62.53
2019-01-14T12:27:16.671Z,62.30
2019-01-14T12:30:44.182Z,62.29
2019-01-14T12:33:33.022Z,63.77
2019-01-14T12:36:22.234Z,65.75
2019-01-14T12:39:10.995Z,65.93
2019-01-14T12:41:59.809Z,67.76
2019-01-14T12:44:48.600Z,68.68
2019-01-14T12:47:37.422Z,68.76
2019-01-14T12:50:26.349Z,66.47
2019-01-14T12:53:07.640Z,66.01
2019-01-14T12:55:56.456Z,65.48
2019-01-14T12:58:45.361Z,64.37
2019-01-14T13:01:34.152Z,65.26
2019-01-14T13:04:22.949Z,66.36
2019-01-14T13:07:11.793Z,67.06
2019-01-14T13:10:00.651Z,67.21
2019-01-14T13:12:49.532Z,65.56
2019-01-14T13:15:57.341Z,64.41
2019-01-14T13:18:46.172Z,65.58
2019-01-14T13:21:34.970Z,67.88
2019-01-14T13:24:23.791Z,69.11
2019-01-14T13:27:12.602Z,72.04
2019-01-14T13:30:01.392Z,75.11
2019-01-14T13:32:50.192Z,78.64
2019-01-14T13:35:38.995Z,79.00
2019-01-14T13:38:27.816Z,80.83
2019-01-14T13:41:16.597Z,81.64
2019-01-14T13:44:05.487Z,81.37
2019-01-14T13:46:54.267Z,80.16
2019-01-14T13:49:43.080Z,78.60
2019-01-14T13:52:31.868Z,77.34
2019-01-14T13:55:13.231Z,73.77
2019-01-14T13:58:02.019Z,72.25
2019-01-14T14:00:50.891Z,70.73
2019-01-14T14:03:39.692Z,69.79
2019-01-14T14:06:28.500Z,70.44
2019-01-14T14:09:17.291Z,69.21
2019-01-14T14:12:06.085Z,69.10
2019-01-14T14:14:54.897Z,68.20
2019-01-14T14:17:43.709Z,68.56
2019-01-14T14:20:32.502Z,67.34
2019-01-14T14:23:21.320Z,67.94
2019-01-14T14:26:10.120Z,67.70
2019-01-14T14:28:58.926Z,69.55
2019-01-14T14:31:47.787Z,70.69
2019-01-14T14:34:36.589Z,70.77
2019-01-14T14:37:25.374Z,69.53
2019-01-14T14:40:14.252Z,67.25
2019-01-14T14:43:03.131Z,68.08
2019-01-14T14:45:51.919Z,67.87
2019-01-14T14:48:40.726Z,69.40
2019-01-14T14:54:37.272Z,72.36
2019-01-14T14:57:26.066Z,74.47
2019-01-14T15:00:36.151Z,79.61
2019-01-14T15:03:24.939Z,83.06
2019-01-14T15:06:13.744Z,83.35
2019-01-14T15:09:02.599Z,84.16
2019-01-14T15:14:50.546Z,82.22
2019-01-14T15:17:39.356Z,84.77
2019-01-14T15:20:28.422Z,83.01
2019-01-14T15:23:17.254Z,80.16
2019-01-14T15:26:06.053Z,78.39
2019-01-14T15:28:54.874Z,77.63
2019-01-14T15:31:43.663Z,77.51
2019-01-14T15:34:33.181Z,77.38
2019-01-14T15:37:23.021Z,76.15
2019-01-14T15:40:14.675Z,76.44
2019-01-14T15:46:11.227Z,74.10
2019-01-14T15:48:52.630Z,73.39
2019-01-14T15:51:41.512Z,73.65
2019-01-14T15:54:30.334Z,72.02
2019-01-14T15:57:19.122Z,71.03
2019-01-14T16:00:28.835Z,69.59
2019-01-14T16:03:17.632Z,68.82
2019-01-14T16:06:06.430Z,66.97
2019-01-14T16:08:55.218Z,67.14
2019-01-14T16:11:44.030Z,67.18
2019-01-14T16:14:32.834Z,66.99
2019-01-14T16:17:21.655Z,66.95
2019-01-14T16:20:31.375Z,66.65
2019-01-14T16:23:20.175Z,66.72
2019-01-14T16:26:08.961Z,67.47
2019-01-14T16:28:57.833Z,67.67
2019-01-14T16:31:46.698Z,67.94
2019-01-14T16:34:35.497Z,68.33
2019-01-14T16:37:24.284Z,68.13
2019-01-14T16:40:18.004Z,68.41
2019-01-14T16:43:04.506Z,68.44
2019-01-14T16:45:46.804Z,68.75
2019-01-14T16:48:35.594Z,68.76
2019-01-14T16:51:24.418Z,68.94
2019-01-14T16:54:13.200Z,68.76
2019-01-14T16:57:02.015Z,69.38
2019-01-14T16:59:50.829Z,69.53
2019-01-14T17:02:39.873Z,68.67
2019-01-14T17:05:28.695Z,68.52
2019-01-14T17:08:17.802Z,69.42
2019-01-14T17:11:06.616Z,68.91
2019-01-14T17:13:55.400Z,68.78
2019-01-14T17:16:44.231Z,68.98
2019-01-14T17:19:33.038Z,68.98
2019-01-14T17:22:21.832Z,68.46
2019-01-14T17:25:10.712Z,68.44
2019-01-14T17:27:59.510Z,68.33
2019-01-14T17:30:48.316Z,67.89
2019-01-14T17:33:37.121Z,68.14
2019-01-14T17:36:25.924Z,68.34
2019-01-14T17:39:14.717Z,68.40
2019-01-14T17:45:02.773Z,69.08
2019-01-14T17:47:42.610Z,68.11
2019-01-14T17:50:31.409Z,68.10
2019-01-14T17:53:20.221Z,68.11
2019-01-14T17:56:09.001Z,67.76
2019-01-14T17:58:57.832Z,68.16
2019-01-14T18:01:46.623Z,69.00
2019-01-14T18:04:35.448Z,68.72
2019-01-14T18:07:24.236Z,69.57
2019-01-14T18:10:39.852Z,68.87
2019-01-14T18:13:24.460Z,68.90
2019-01-14T18:16:13.264Z,67.68
2019-01-14T18:19:02.070Z,68.08
2019-01-14T18:21:50.904Z,68.56
2019-01-14T18:24:39.696Z,68.28
2019-01-14T18:27:28.506Z,68.29
2019-01-14T18:30:38.245Z,68.14
2019-01-14T18:33:27.042Z,68.33
2019-01-14T18:36:15.874Z,68.59
2019-01-14T18:39:25.553Z,68.42
2019-01-14T18:42:14.357Z,68.10
2019-01-14T18:44:56.041Z,68.65
2019-01-14T18:47:44.839Z,68.41
2019-01-14T18:50:33.658Z,67.90
2019-01-14T18:53:22.453Z,68.84
2019-01-14T18:56:11.284Z,68.16
2019-01-14T18:59:00.075Z,67.96
2019-01-14T19:01:49.238Z,67.82
2019-01-14T19:04:38.038Z,67.92
2019-01-14T19:07:26.847Z,67.92
2019-01-14T19:10:16.203Z,69.05
2019-01-14T19:13:05.248Z,69.87
2019-01-14T19:15:54.366Z,69.95
2019-01-14T19:18:43.595Z,70.11
2019-01-14T19:24:40.690Z,70.82
2019-01-14T19:27:45.311Z,69.60
2019-01-14T19:33:51.709Z,70.94
2019-01-14T19:37:00.022Z,69.74
2019-01-14T19:40:20.368Z,69.43
2019-01-14T19:42:53.299Z,70.34
2019-01-14T19:46:01.179Z,69.77
2019-01-14T19:54:58.619Z,70.16
2019-01-14T19:57:48.526Z,69.79
2019-01-14T20:00:52.431Z,69.50
2019-01-14T20:03:48.837Z,69.26
2019-01-14T20:10:41.927Z,69.38
2019-01-14T20:16:27.805Z,69.51
2019-01-14T20:26:20.518Z,69.54
2019-01-14T20:32:13.021Z,68.96
2019-01-14T20:38:17.883Z,68.60
2019-01-14T20:44:37.972Z,67.09
2019-01-14T20:47:41.235Z,66.79
2019-01-14T20:57:24.315Z,66.79
2019-01-14T21:04:05.799Z,67.64
2019-01-14T21:06:43.580Z,67.25
2019-01-14T21:09:33.571Z,67.44
2019-01-14T21:12:23.528Z,68.25
2019-01-14T21:15:13.578Z,68.74
2019-01-14T21:18:02.772Z,67.32
2019-01-14T21:20:52.292Z,67.90
2019-01-14T21:23:41.615Z,68.04
2019-01-14T21:26:30.970Z,68.45
2019-01-14T21:29:27.275Z,68.58
2019-01-14T21:32:16.331Z,68.71
2019-01-14T21:34:58.323Z,68.41
2019-01-14T21:41:02.155Z,69.19
2019-01-14T21:46:58.706Z,67.93
2019-01-14T21:49:47.489Z,68.61
2019-01-14T21:52:36.300Z,68.56
2019-01-14T21:55:25.181Z,69.22
2019-01-14T21:58:14.057Z,69.02
2019-01-14T22:01:02.844Z,69.27
2019-01-14T22:03:51.720Z,68.80
2019-01-14T22:06:40.531Z,68.48
2019-01-14T22:09:29.342Z,68.89
2019-01-14T22:12:18.130Z,69.78
2019-01-14T22:15:27.867Z,69.71
2019-01-14T22:18:16.663Z,69.44
2019-01-14T22:21:05.549Z,69.51
2019-01-14T22:23:54.343Z,69.31
2019-01-14T22:26:36.278Z,69.24
2019-01-14T22:29:25.040Z,69.81
2019-01-14T22:32:13.847Z,70.54
2019-01-14T22:35:02.737Z,70.54
2019-01-14T22:37:51.523Z,70.51
2019-01-14T22:40:40.340Z,70.23
2019-01-14T22:43:29.126Z,70.44
2019-01-14T22:46:17.946Z,70.75
2019-01-14T22:49:06.734Z,71.01
2019-01-14T22:51:55.543Z,70.75
2019-01-14T22:54:44.326Z,70.80
2019-01-14T22:57:33.153Z,72.10
2019-01-14T23:01:01.888Z,71.71
2019-01-14T23:03:50.778Z,72.47
2019-01-14T23:06:39.563Z,72.59
2019-01-14T23:09:28.399Z,71.93
2019-01-14T23:12:17.171Z,73.17
2019-01-14T23:15:06.714Z,72.55
2019-01-14T23:17:55.507Z,72.27
2019-01-14T23:20:44.345Z,72.56
2019-01-14T23:23:33.141Z,72.38
2019-01-14T23:26:14.807Z,71.77
2019-01-14T23:29:03.584Z,72.16
2019-01-14T23:31:45.167Z,72.33
2019-01-14T23:34:33.952Z,71.18
2019-01-14T23:37:22.834Z,72.57
2019-01-14T23:40:12.021Z,72.84
2019-01-14T23:43:00.851Z,71.64
2019-01-14T23:45:49.670Z,72.08
2019-01-14T23:48:38.463Z,72.19
2019-01-14T23:51:27.266Z,71.30
2019-01-14T23:53:56.723Z,71.41
2019-01-14T23:56:45.524Z,72.21
2019-01-14T23:59:34.323Z,71.51
